Time;durP1;ratioP1;P1;durP2;ratioP2;P2;SDS_P1;SDS_P2;PMS_P1;PMS_P2;Temp;Humidity;BMP_temperature;BMP_pressure;BME280_temperature;BME280_humidity;BME280_pressure;Samples;Min_cycle;Max_cycle;Signal;HPM_P1;HPM_P2
2022/03/10 00:00:08;;;;;;;7.97;3.67;;;10.30;99.90;;;;;;5021357;28;20066;-60
2022/03/10 00:02:36;;;;;;;7.70;3.65;;;10.30;99.90;;;;;;5018179;28;20056;-60
2022/03/10 00:05:04;;;;;;;10.20;3.90;;;10.30;99.90;;;;;;5018529;28;20064;-60
2022/03/10 00:07:31;;;;;;;8.05;3.80;;;10.30;99.90;;;;;;5001365;28;20065;-59
2022/03/10 00:09:58;;;;;;;5.82;3.22;;;10.40;99.90;;;;;;5018297;28;20038;-59
2022/03/10 00:12:24;;;;;;;6.47;3.58;;;10.40;99.90;;;;;;5017927;28;20042;-59
2022/03/10 00:14:51;;;;;;;7.70;4.15;;;10.40;99.90;;;;;;5028969;28;20034;-59
2022/03/10 00:17:18;;;;;;;8.75;3.95;;;10.30;99.90;;;;;;5018777;28;20050;-60
2022/03/10 00:19:45;;;;;;;11.43;3.85;;;10.30;99.90;;;;;;5013830;28;20030;-60
2022/03/10 00:22:12;;;;;;;8.05;3.42;;;10.30;99.90;;;;;;5018892;28;20094;-59
2022/03/10 00:24:42;;;;;;;9.00;3.83;;;10.30;99.90;;;;;;5019489;28;20035;-59
2022/03/10 00:27:09;;;;;;;9.48;4.28;;;10.30;99.90;;;;;;5002541;28;20042;-58
2022/03/10 00:29:36;;;;;;;6.32;3.42;;;10.30;99.90;;;;;;5018628;28;20062;-60
2022/03/10 00:32:03;;;;;;;7.85;3.50;;;10.30;99.90;;;;;;5018360;28;20026;-60
2022/03/10 00:34:31;;;;;;;9.98;4.38;;;10.30;99.90;;;;;;5002701;28;20065;-59
2022/03/10 00:36:58;;;;;;;12.75;4.20;;;10.30;99.90;;;;;;5019302;28;20037;-59
2022/03/10 00:39:25;;;;;;;7.55;4.53;;;10.30;99.90;;;;;;5018998;28;20034;-57
2022/03/10 00:41:52;;;;;;;7.43;4.00;;;10.30;99.90;;;;;;5018816;28;20035;-59
2022/03/10 00:44:19;;;;;;;12.38;5.50;;;10.20;99.90;;;;;;5001609;28;20066;-59
2022/03/10 00:46:46;;;;;;;9.75;4.32;;;10.20;99.90;;;;;;5019524;28;20042;-59
2022/03/10 00:49:13;;;;;;;9.65;4.35;;;10.20;99.90;;;;;;5002129;28;20065;-60
2022/03/10 00:51:40;;;;;;;10.27;3.65;;;10.20;99.90;;;;;;5013683;28;20042;-60
2022/03/10 00:54:07;;;;;;;11.48;4.75;;;10.30;99.90;;;;;;5018685;28;20028;-59
2022/03/10 00:56:34;;;;;;;12.23;4.63;;;10.20;99.90;;;;;;5024954;28;20038;-60
2022/03/10 00:59:02;;;;;;;7.75;4.68;;;10.20;99.90;;;;;;5001763;28;20090;-60
2022/03/10 01:01:29;;;;;;;11.50;4.50;;;10.20;99.90;;;;;;5018926;28;20048;-60
2022/03/10 01:03:58;;;;;;;9.50;4.40;;;10.20;99.90;;;;;;5001997;28;20058;-62
2022/03/10 01:06:24;;;;;;;10.18;5.50;;;10.30;99.90;;;;;;5007961;28;20105;-59
2022/03/10 01:08:51;;;;;;;13.45;4.85;;;10.20;99.90;;;;;;5001708;28;20073;-58
2022/03/10 01:11:18;;;;;;;11.02;5.82;;;10.20;99.90;;;;;;5018794;28;20057;-60
2022/03/10 01:13:45;;;;;;;9.05;5.05;;;10.20;99.90;;;;;;5001817;28;20050;-59
2022/03/10 01:16:12;;;;;;;9.27;5.35;;;10.10;99.90;;;;;;5018647;28;20065;-58
2022/03/10 01:18:39;;;;;;;13.00;5.13;;;10.10;99.90;;;;;;5018596;28;20074;-61
2022/03/10 01:21:06;;;;;;;9.45;4.88;;;10.10;99.90;;;;;;5018060;28;20044;-61
2022/03/10 01:23:33;;;;;;;15.45;5.55;;;10.10;99.90;;;;;;5018107;28;20041;-60
2022/03/10 01:26:00;;;;;;;11.35;5.60;;;10.10;99.90;;;;;;5018191;28;20084;-60
2022/03/10 01:28:27;;;;;;;14.93;5.78;;;10.10;99.90;;;;;;5001404;28;20034;-59
2022/03/10 01:30:54;;;;;;;9.23;5.88;;;10.10;99.90;;;;;;4997884;28;20021;-60
2022/03/10 01:33:21;;;;;;;12.70;5.50;;;10.10;99.90;;;;;;5017792;28;20034;-60
2022/03/10 01:35:48;;;;;;;10.88;6.50;;;10.10;99.90;;;;;;5017746;28;20027;-60
2022/03/10 01:38:14;;;;;;;9.68;5.55;;;10.00;99.90;;;;;;5022015;28;20046;-60
2022/03/10 01:40:41;;;;;;;13.50;5.93;;;10.00;99.90;;;;;;4670183;28;10000452;-59
2022/03/10 01:43:08;;;;;;;12.85;6.53;;;10.00;99.90;;;;;;5015559;28;20351;-59
2022/03/10 01:45:35;;;;;;;12.88;6.22;;;10.00;99.90;;;;;;5017498;28;20061;-59
2022/03/10 01:48:01;;;;;;;11.63;6.68;;;9.90;99.90;;;;;;5017991;28;20065;-60
2022/03/10 01:50:28;;;;;;;12.88;6.65;;;9.90;99.90;;;;;;5017672;28;20061;-60
2022/03/10 01:52:56;;;;;;;15.25;6.80;;;9.90;99.90;;;;;;5009450;28;20062;-59
2022/03/10 01:55:23;;;;;;;12.68;6.43;;;9.90;99.90;;;;;;4986565;28;20030;-59
2022/03/10 01:57:52;;;;;;;12.13;6.90;;;9.90;99.90;;;;;;5021646;28;20026;-60
2022/03/10 02:00:19;;;;;;;18.67;7.72;;;9.80;99.90;;;;;;5033067;28;20050;-59
2022/03/10 02:02:46;;;;;;;18.17;7.30;;;9.80;99.90;;;;;;5017485;28;20027;-60
2022/03/10 02:05:13;;;;;;;14.60;7.82;;;9.80;99.90;;;;;;5033286;28;20048;-60
2022/03/10 02:10:28;;;;;;;12.73;7.97;;;9.80;99.90;;;;;;5030660;28;20035;-59
2022/03/10 02:12:55;;;;;;;13.05;7.00;;;9.70;99.90;;;;;;5017149;28;20018;-59
2022/03/10 02:18:15;;;;;;;20.17;7.13;;;9.70;99.90;;;;;;5016554;28;20050;-58
2022/03/10 02:20:42;;;;;;;17.10;7.47;;;9.70;99.90;;;;;;4984418;28;20034;-60
2022/03/10 02:23:10;;;;;;;15.52;7.13;;;9.60;99.90;;;;;;5015296;28;20038;-61
2022/03/10 02:25:37;;;;;;;14.70;7.18;;;9.60;99.90;;;;;;5017392;28;20212;-60
2022/03/10 02:28:04;;;;;;;13.13;7.30;;;9.60;99.90;;;;;;5016979;28;20077;-60
2022/03/10 02:30:31;;;;;;;15.23;7.00;;;9.60;99.90;;;;;;4997899;28;20054;-57
2022/03/10 02:32:58;;;;;;;14.75;7.32;;;9.60;99.90;;;;;;4999997;28;20074;-60
2022/03/10 02:35:26;;;;;;;16.73;7.45;;;9.60;99.90;;;;;;5000475;28;20077;-61
2022/03/10 02:37:53;;;;;;;18.50;8.07;;;9.60;99.90;;;;;;5026260;28;20093;-60
2022/03/10 02:40:20;;;;;;;10.57;6.40;;;9.60;99.90;;;;;;5017056;28;20030;-60
2022/03/10 02:42:47;;;;;;;14.35;7.35;;;9.60;99.90;;;;;;5016618;28;20034;-61
2022/03/10 02:45:13;;;;;;;14.18;7.50;;;9.50;99.90;;;;;;5017061;28;20065;-59
2022/03/10 02:47:40;;;;;;;16.20;7.90;;;9.50;99.90;;;;;;5016624;28;20065;-59
2022/03/10 02:50:08;;;;;;;25.23;8.70;;;9.50;99.90;;;;;;5016949;28;20402;-59
2022/03/10 02:52:36;;;;;;;16.92;8.13;;;9.50;99.90;;;;;;5012107;28;20034;-60
2022/03/10 02:55:04;;;;;;;14.93;8.40;;;9.50;99.90;;;;;;4999286;28;20030;-60
2022/03/10 02:57:31;;;;;;;20.83;8.18;;;9.50;99.90;;;;;;5001058;28;20034;-60
2022/03/10 02:59:59;;;;;;;14.38;8.38;;;9.50;99.90;;;;;;4999982;28;20054;-61
2022/03/10 03:02:26;;;;;;;15.88;8.82;;;9.50;99.90;;;;;;4984209;28;20034;-59
2022/03/10 03:04:54;;;;;;;18.35;8.52;;;9.40;99.90;;;;;;5016719;28;20066;-59
2022/03/10 03:07:20;;;;;;;16.77;7.75;;;9.40;99.90;;;;;;5016619;28;20065;-60
2022/03/10 03:09:47;;;;;;;14.02;7.90;;;9.40;99.90;;;;;;5016457;28;20030;-59
2022/03/10 03:12:14;;;;;;;15.32;8.30;;;9.40;99.90;;;;;;5016762;28;20047;-60
2022/03/10 03:14:43;;;;;;;18.13;9.88;;;9.40;99.90;;;;;;5016320;28;20042;-60
2022/03/10 03:17:10;;;;;;;15.20;8.93;;;9.40;99.90;;;;;;5016721;28;20034;-59
2022/03/10 03:19:37;;;;;;;15.27;8.40;;;9.30;99.90;;;;;;5015344;28;20038;-59
2022/03/10 03:22:04;;;;;;;18.75;9.73;;;9.30;99.90;;;;;;5016005;28;20046;-60
2022/03/10 03:24:31;;;;;;;16.13;8.90;;;9.30;99.90;;;;;;5004576;28;20030;-60
2022/03/10 03:26:58;;;;;;;17.35;8.80;;;9.30;99.90;;;;;;5016477;28;20116;-59
2022/03/10 03:29:25;;;;;;;20.02;9.43;;;9.30;99.90;;;;;;5016147;28;20094;-60
2022/03/10 03:31:52;;;;;;;23.13;11.98;;;9.20;99.90;;;;;;5016328;28;20073;-60
2022/03/10 03:34:19;;;;;;;20.98;9.70;;;9.20;99.90;;;;;;5015955;28;20062;-60
2022/03/10 03:36:46;;;;;;;20.17;9.13;;;9.20;99.90;;;;;;4980143;28;20050;-60
2022/03/10 03:39:13;;;;;;;20.13;9.95;;;9.20;99.90;;;;;;5004583;28;20082;-59
2022/03/10 03:41:40;;;;;;;24.58;9.88;;;9.20;99.90;;;;;;5016124;28;20034;-59
2022/03/10 03:44:07;;;;;;;18.27;9.80;;;9.20;99.90;;;;;;5016146;28;20153;-59
2022/03/10 03:46:34;;;;;;;24.10;10.35;;;9.20;99.90;;;;;;5016185;28;20062;-58
2022/03/10 03:49:06;;;;;;;20.35;9.90;;;9.20;99.90;;;;;;5015527;28;20089;-59
2022/03/10 03:51:32;;;;;;;15.80;9.43;;;9.20;99.90;;;;;;5016262;28;20082;-60
2022/03/10 03:53:59;;;;;;;15.90;8.98;;;9.20;99.90;;;;;;5031703;28;20058;-59
2022/03/10 03:56:26;;;;;;;16.67;9.52;;;9.10;99.90;;;;;;4998876;28;20030;-59
2022/03/10 03:58:53;;;;;;;19.95;9.70;;;9.10;99.90;;;;;;4999584;28;20045;-57
2022/03/10 04:01:20;;;;;;;22.23;11.38;;;9.10;99.90;;;;;;5015397;28;20058;-60
2022/03/10 04:03:47;;;;;;;24.20;11.23;;;9.10;99.90;;;;;;5013628;28;20106;-59
2022/03/10 04:06:16;;;;;;;15.30;9.27;;;9.10;99.90;;;;;;5017000;28;20091;-58
2022/03/10 04:08:43;;;;;;;15.70;9.57;;;9.10;99.90;;;;;;5018846;28;20136;-59
2022/03/10 04:11:10;;;;;;;27.25;10.60;;;9.00;99.90;;;;;;5001743;28;20026;-58
2022/03/10 04:13:37;;;;;;;18.92;10.38;;;9.00;99.90;;;;;;5002083;28;20082;-59
2022/03/10 04:16:04;;;;;;;21.80;10.43;;;9.00;99.90;;;;;;5018207;28;20088;-59
2022/03/10 04:18:35;;;;;;;19.65;9.00;;;9.00;99.90;;;;;;5009045;28;20131;-58
2022/03/10 04:21:02;;;;;;;16.75;9.75;;;9.00;99.90;;;;;;5000498;28;20066;-59
2022/03/10 04:23:28;;;;;;;17.55;9.85;;;9.00;99.90;;;;;;5018195;28;20044;-59
2022/03/10 04:25:55;;;;;;;16.15;9.35;;;9.00;99.90;;;;;;5017774;28;20026;-59
2022/03/10 04:28:22;;;;;;;17.23;9.95;;;8.90;99.90;;;;;;5017679;28;20058;-59
2022/03/10 04:30:49;;;;;;;17.95;10.75;;;9.00;99.90;;;;;;5017793;28;20026;-60
2022/03/10 04:33:16;;;;;;;21.67;10.43;;;8.90;99.90;;;;;;5001014;28;20030;-59
2022/03/10 04:35:44;;;;;;;18.20;9.73;;;8.90;99.90;;;;;;5002284;28;20042;-59
2022/03/10 04:38:10;;;;;;;19.90;10.48;;;8.90;99.90;;;;;;5001205;28;20063;-59
2022/03/10 04:40:37;;;;;;;19.30;11.50;;;8.90;99.90;;;;;;5017849;28;20088;-60
2022/03/10 04:43:04;;;;;;;16.42;10.65;;;8.80;99.90;;;;;;5017926;28;20035;-59
2022/03/10 04:45:31;;;;;;;18.13;9.60;;;8.80;99.90;;;;;;5017664;28;20051;-62
2022/03/10 04:47:59;;;;;;;21.90;12.98;;;8.80;99.90;;;;;;4999331;28;20085;-59
2022/03/10 04:50:26;;;;;;;20.30;10.25;;;8.80;99.90;;;;;;5016725;28;20073;-59
2022/03/10 04:52:52;;;;;;;22.90;10.88;;;8.80;99.90;;;;;;5017390;28;20034;-60
2022/03/10 04:55:19;;;;;;;22.05;10.88;;;8.80;99.90;;;;;;5000777;28;20034;-59
2022/03/10 04:57:50;;;;;;;27.95;11.63;;;8.80;99.90;;;;;;5001014;28;20038;-59
2022/03/10 05:00:18;;;;;;;21.35;12.77;;;8.80;99.90;;;;;;5000622;28;20042;-59
2022/03/10 05:02:47;;;;;;;18.33;10.73;;;8.70;99.90;;;;;;5000511;28;20049;-60
2022/03/10 05:05:14;;;;;;;23.52;11.43;;;8.80;99.90;;;;;;5017289;28;20050;-60
2022/03/10 05:07:41;;;;;;;22.75;11.68;;;8.80;99.90;;;;;;5000424;28;20034;-60
2022/03/10 05:10:09;;;;;;;18.17;9.80;;;8.80;99.90;;;;;;5017416;28;20076;-59
2022/03/10 05:12:49;;;;;;;22.55;12.00;;;8.80;99.90;;;;;;5000146;28;20074;-58
2022/03/10 05:15:20;;;;;;;17.90;11.57;;;8.80;99.90;;;;;;5017152;28;20035;-58
2022/03/10 05:17:47;;;;;;;19.50;10.80;;;8.70;99.90;;;;;;4996229;28;20039;-58
2022/03/10 05:20:13;;;;;;;24.50;12.15;;;8.70;99.90;;;;;;4992515;28;20041;-61
2022/03/10 05:22:45;;;;;;;20.73;10.88;;;8.70;99.90;;;;;;4999768;28;20050;-58
2022/03/10 05:25:13;;;;;;;23.42;11.45;;;8.70;99.90;;;;;;5016708;28;20031;-58
2022/03/10 05:27:40;;;;;;;21.30;11.18;;;8.70;99.90;;;;;;5000117;28;20784;-60
2022/03/10 05:30:08;;;;;;;24.60;11.50;;;8.70;99.90;;;;;;5000147;28;20040;-59
2022/03/10 05:32:38;;;;;;;20.48;11.48;;;8.70;99.90;;;;;;5016812;28;20035;-59
2022/03/10 05:35:06;;;;;;;21.85;11.48;;;8.70;99.90;;;;;;5016708;28;20038;-60
2022/03/10 05:37:35;;;;;;;18.13;10.68;;;8.70;99.90;;;;;;5016395;28;20035;-60
2022/03/10 05:40:08;;;;;;;23.65;11.32;;;8.70;99.90;;;;;;4999770;28;20030;-60
2022/03/10 05:42:37;;;;;;;18.10;11.10;;;8.70;99.90;;;;;;4999799;28;20040;-60
2022/03/10 05:45:05;;;;;;;22.02;11.27;;;8.70;99.90;;;;;;4999770;28;20086;-59
2022/03/10 05:47:32;;;;;;;23.45;11.05;;;8.70;99.90;;;;;;5016857;28;20042;-59
2022/03/10 05:49:58;;;;;;;18.70;10.90;;;8.70;99.90;;;;;;5015647;28;20110;-56
2022/03/10 05:52:25;;;;;;;19.17;11.77;;;8.70;99.90;;;;;;5016382;28;20053;-59
2022/03/10 05:54:52;;;;;;;23.48;12.82;;;8.60;99.90;;;;;;5016483;28;20156;-59
2022/03/10 05:57:19;;;;;;;26.67;12.60;;;8.60;99.90;;;;;;4999639;28;20031;-60
2022/03/10 05:59:46;;;;;;;21.10;11.32;;;8.60;99.90;;;;;;5016243;28;20038;-58
2022/03/10 06:02:15;;;;;;;19.88;11.20;;;8.70;99.90;;;;;;4999533;28;20063;-59
2022/03/10 06:04:43;;;;;;;25.63;12.13;;;8.70;99.90;;;;;;5015929;28;20031;-59
2022/03/10 06:07:10;;;;;;;21.27;11.43;;;8.70;99.90;;;;;;5015690;28;20066;-59
2022/03/10 06:09:36;;;;;;;24.00;12.07;;;8.70;99.90;;;;;;5015772;28;20089;-60
2022/03/10 06:12:04;;;;;;;26.20;10.82;;;8.70;99.90;;;;;;5016293;28;20026;-59
2022/03/10 06:14:31;;;;;;;22.17;11.63;;;8.70;99.90;;;;;;4999056;28;20065;-58
2022/03/10 06:16:58;;;;;;;18.77;11.68;;;8.70;99.90;;;;;;5016252;28;20042;-59
2022/03/10 06:19:25;;;;;;;23.38;12.68;;;8.70;99.90;;;;;;4998365;28;20041;-59
2022/03/10 06:21:52;;;;;;;21.13;12.40;;;8.80;99.90;;;;;;5016147;28;20042;-59
2022/03/10 06:24:19;;;;;;;23.92;11.75;;;8.80;99.90;;;;;;4999122;28;20035;-58
2022/03/10 06:26:46;;;;;;;19.48;11.15;;;8.80;99.90;;;;;;5016306;28;20037;-59
2022/03/10 06:29:13;;;;;;;19.75;11.25;;;8.80;99.90;;;;;;4999118;28;20034;-60
2022/03/10 06:31:40;;;;;;;22.98;11.45;;;8.90;99.90;;;;;;5015820;28;20066;-61
2022/03/10 06:34:09;;;;;;;25.85;13.10;;;8.90;99.90;;;;;;4999073;28;20026;-61
2022/03/10 06:36:36;;;;;;;19.30;11.73;;;8.90;99.90;;;;;;5008619;28;20026;-60
2022/03/10 06:39:03;;;;;;;24.27;12.98;;;8.90;99.90;;;;;;5015274;28;20040;-60
2022/03/10 06:41:30;;;;;;;20.05;11.80;;;8.90;99.90;;;;;;5015049;28;20069;-60
2022/03/10 06:43:57;;;;;;;18.80;11.10;;;9.00;99.90;;;;;;5023145;28;20054;-60
2022/03/10 06:46:24;;;;;;;25.35;12.63;;;9.00;99.90;;;;;;5007565;28;20026;-60
2022/03/10 06:48:51;;;;;;;18.77;11.65;;;9.00;99.90;;;;;;5014934;28;20061;-60
2022/03/10 06:51:17;;;;;;;20.60;10.93;;;9.10;99.90;;;;;;5015041;28;20030;-60
2022/03/10 06:53:44;;;;;;;22.15;12.32;;;9.00;99.90;;;;;;5015803;28;20034;-59
2022/03/10 06:56:11;;;;;;;18.15;11.55;;;9.10;99.90;;;;;;5015412;28;20037;-59
2022/03/10 06:58:40;;;;;;;18.90;10.68;;;9.10;99.90;;;;;;4998749;28;20033;-59
2022/03/10 07:01:06;;;;;;;15.05;10.50;;;9.10;99.90;;;;;;5015384;28;20034;-60
2022/03/10 07:03:33;;;;;;;24.83;14.10;;;9.10;99.90;;;;;;5015173;28;20107;-58
2022/03/10 07:06:00;;;;;;;21.70;11.25;;;9.10;99.90;;;;;;5015430;28;20030;-59
2022/03/10 07:08:27;;;;;;;22.20;13.10;;;9.10;99.90;;;;;;5003846;28;20065;-60
2022/03/10 07:10:54;;;;;;;20.40;12.75;;;9.10;99.90;;;;;;5015285;28;20058;-59
2022/03/10 07:13:21;;;;;;;21.65;13.13;;;9.20;99.90;;;;;;5015580;28;20031;-60
2022/03/10 07:15:53;;;;;;;21.25;11.52;;;9.20;99.90;;;;;;5015451;28;20079;-59
2022/03/10 07:18:20;;;;;;;21.73;13.95;;;9.20;99.90;;;;;;5003916;28;20034;-58
2022/03/10 07:20:48;;;;;;;24.08;13.00;;;9.20;99.90;;;;;;4998878;28;20046;-60
2022/03/10 07:23:14;;;;;;;23.38;13.00;;;9.30;99.90;;;;;;4998942;28;20030;-59
2022/03/10 07:25:43;;;;;;;20.30;12.95;;;9.30;99.90;;;;;;5015680;28;20030;-59
2022/03/10 07:28:10;;;;;;;25.70;13.50;;;9.20;99.90;;;;;;5015450;28;20038;-59
2022/03/10 07:30:37;;;;;;;22.33;13.82;;;9.30;99.90;;;;;;5015624;28;20030;-58
2022/03/10 07:33:04;;;;;;;26.55;15.80;;;9.30;99.90;;;;;;5015231;28;20034;-59
2022/03/10 07:35:30;;;;;;;21.58;13.27;;;9.30;99.90;;;;;;4994038;28;20081;-59
2022/03/10 07:37:59;;;;;;;22.55;12.13;;;9.40;99.90;;;;;;5005751;28;20047;-60
2022/03/10 07:40:26;;;;;;;25.60;15.07;;;9.40;99.90;;;;;;5012309;28;20049;-60
2022/03/10 07:42:53;;;;;;;24.38;12.93;;;9.50;99.90;;;;;;5012633;28;20030;-60
2022/03/10 07:45:20;;;;;;;29.83;13.77;;;9.60;99.90;;;;;;5013298;28;20050;-57
2022/03/10 07:47:47;;;;;;;24.25;13.45;;;9.60;99.90;;;;;;5016750;28;20066;-58
2022/03/10 07:50:14;;;;;;;35.67;13.20;;;9.60;99.90;;;;;;5000346;28;20046;-57
2022/03/10 07:52:41;;;;;;;24.30;13.57;;;9.70;99.90;;;;;;5016465;28;20077;-59
2022/03/10 07:55:08;;;;;;;23.40;12.82;;;9.80;99.90;;;;;;5016206;28;20053;-58
2022/03/10 07:57:36;;;;;;;27.15;13.98;;;9.80;99.90;;;;;;5015421;28;20053;-59
2022/03/10 08:00:04;;;;;;;25.77;13.63;;;9.90;99.90;;;;;;5004910;28;20042;-60
2022/03/10 08:02:31;;;;;;;22.42;13.82;;;9.90;99.90;;;;;;5027424;28;20064;-58
2022/03/10 08:04:59;;;;;;;27.23;13.55;;;9.80;99.90;;;;;;5001185;28;20037;-60
2022/03/10 08:07:26;;;;;;;27.38;13.82;;;9.90;99.90;;;;;;4998621;28;20030;-58
2022/03/10 08:09:52;;;;;;;23.08;13.65;;;9.90;99.90;;;;;;5010338;28;20151;-59
2022/03/10 08:12:19;;;;;;;25.30;15.73;;;9.90;99.90;;;;;;5016821;28;20034;-60
2022/03/10 08:14:46;;;;;;;28.63;14.30;;;10.00;99.90;;;;;;5016057;28;20076;-60
2022/03/10 08:17:13;;;;;;;25.23;12.70;;;10.10;99.90;;;;;;5017768;28;20034;-59
2022/03/10 08:19:40;;;;;;;34.50;15.25;;;10.10;99.90;;;;;;5017277;28;20054;-59
2022/03/10 08:22:09;;;;;;;23.85;14.73;;;10.20;99.90;;;;;;5017539;28;20050;-60
2022/03/10 08:24:36;;;;;;;21.42;14.30;;;10.30;99.90;;;;;;5007295;28;20042;-58
2022/03/10 08:27:04;;;;;;;23.13;13.95;;;10.30;99.90;;;;;;5003676;28;20034;-59
2022/03/10 08:29:31;;;;;;;25.05;13.65;;;10.40;99.90;;;;;;5017051;28;20038;-59
2022/03/10 08:31:58;;;;;;;23.13;13.88;;;10.50;99.90;;;;;;5000920;28;20031;-59
2022/03/10 08:34:24;;;;;;;28.35;13.55;;;10.60;99.90;;;;;;5015517;28;20035;-59
2022/03/10 08:36:51;;;;;;;29.42;14.40;;;10.60;99.90;;;;;;4994499;28;20034;-60
2022/03/10 08:39:18;;;;;;;28.50;13.98;;;10.70;99.90;;;;;;4999705;28;20246;-58
2022/03/10 08:41:45;;;;;;;28.10;13.75;;;10.80;99.90;;;;;;5017459;28;20104;-60
2022/03/10 08:44:12;;;;;;;20.92;12.25;;;10.80;99.90;;;;;;5017521;28;20062;-60
2022/03/10 08:46:39;;;;;;;22.52;12.75;;;10.90;99.90;;;;;;5001119;28;20026;-63
2022/03/10 08:49:06;;;;;;;22.70;12.40;;;10.90;99.90;;;;;;5016843;28;20030;-59
2022/03/10 08:51:33;;;;;;;21.90;12.90;;;11.00;99.90;;;;;;5016538;28;20042;-61
2022/03/10 08:54:00;;;;;;;29.90;13.10;;;11.10;99.90;;;;;;5012599;28;20069;-61
2022/03/10 08:56:27;;;;;;;18.52;11.88;;;11.20;99.90;;;;;;4995408;28;20038;-60
2022/03/10 08:58:53;;;;;;;19.80;12.43;;;11.20;99.90;;;;;;5017398;28;20026;-60
2022/03/10 09:01:21;;;;;;;24.85;12.70;;;11.40;99.90;;;;;;5016474;28;20054;-59
2022/03/10 09:03:51;;;;;;;20.88;12.10;;;11.50;99.90;;;;;;5017147;28;20035;-60
2022/03/10 09:06:18;;;;;;;23.05;11.75;;;11.60;99.90;;;;;;5015987;28;20060;-59
2022/03/10 09:08:45;;;;;;;16.23;9.57;;;11.80;99.90;;;;;;5000414;28;20056;-60
2022/03/10 09:11:12;;;;;;;22.33;9.63;;;11.80;99.90;;;;;;4999960;28;20034;-60
2022/03/10 09:13:43;;;;;;;23.55;9.65;;;11.90;99.90;;;;;;5018576;28;20030;-60
2022/03/10 09:16:10;;;;;;;19.33;9.27;;;11.90;99.90;;;;;;5016848;28;20026;-59
2022/03/10 09:18:37;;;;;;;16.63;9.13;;;12.20;99.90;;;;;;5018157;28;20022;-59
2022/03/10 09:21:05;;;;;;;18.08;9.60;;;12.50;99.90;;;;;;5016508;28;20058;-60
2022/03/10 09:23:31;;;;;;;18.50;9.57;;;12.70;99.90;;;;;;5016516;28;20070;-59
2022/03/10 09:25:58;;;;;;;14.30;9.38;;;12.80;99.90;;;;;;5016639;28;20038;-59
2022/03/10 09:28:25;;;;;;;20.15;8.57;;;12.80;99.90;;;;;;5006981;28;20035;-59
2022/03/10 09:30:52;;;;;;;17.70;8.35;;;12.80;99.90;;;;;;5016379;28;20046;-57
2022/03/10 09:33:19;;;;;;;15.30;8.27;;;12.80;99.90;;;;;;5016476;28;20069;-60
2022/03/10 09:35:46;;;;;;;16.67;8.57;;;12.70;99.90;;;;;;5015969;28;20050;-60
2022/03/10 09:38:17;;;;;;;15.48;8.40;;;12.60;99.90;;;;;;5020503;28;20090;-60
2022/03/10 09:40:46;;;;;;;13.50;8.38;;;12.60;99.90;;;;;;5016540;28;20029;-60
2022/03/10 09:43:13;;;;;;;19.73;8.73;;;12.60;99.90;;;;;;4995147;28;20054;-61
2022/03/10 09:45:40;;;;;;;15.77;8.55;;;12.70;99.90;;;;;;4994603;28;20085;-60
2022/03/10 09:48:07;;;;;;;17.13;8.43;;;12.60;99.90;;;;;;5011547;28;20026;-60
2022/03/10 09:50:36;;;;;;;15.20;8.00;;;12.70;99.90;;;;;;4991953;28;20031;-60
2022/03/10 09:53:02;;;;;;;13.30;8.48;;;12.80;99.90;;;;;;4999765;28;20071;-59
2022/03/10 09:55:29;;;;;;;18.45;9.15;;;12.90;99.90;;;;;;5016622;28;20038;-60
2022/03/10 09:57:56;;;;;;;15.93;8.60;;;12.90;99.90;;;;;;5008581;28;20034;-61
2022/03/10 10:00:23;;;;;;;14.63;8.13;;;12.90;99.90;;;;;;4999806;28;20038;-60
2022/03/10 10:02:51;;;;;;;15.90;8.27;;;12.90;99.90;;;;;;5016339;28;20035;-59
2022/03/10 10:05:29;;;;;;;17.52;9.52;;;13.00;99.90;;;;;;5017598;28;20069;-60
2022/03/10 10:08:05;;;;;;;13.20;8.77;;;13.10;99.70;;;;;;5016235;28;20026;-59
2022/03/10 10:10:32;;;;;;;14.30;8.85;;;13.10;99.60;;;;;;5015830;28;20049;-59
2022/03/10 10:13:08;;;;;;;17.70;8.48;;;13.20;99.80;;;;;;4995960;28;20026;-60
2022/03/10 10:15:36;;;;;;;13.00;8.95;;;13.10;99.40;;;;;;4995995;28;20042;-60
2022/03/10 10:18:05;;;;;;;14.95;8.10;;;13.10;99.80;;;;;;5026928;28;20121;-61
2022/03/10 10:20:52;;;;;;;14.63;8.48;;;13.20;99.90;;;;;;5016058;28;20157;-60
2022/03/10 10:23:21;;;;;;;15.00;8.45;;;13.30;99.90;;;;;;5014218;28;20053;-59
2022/03/10 10:25:52;;;;;;;13.90;7.88;;;13.40;99.70;;;;;;5001060;28;20066;-59
2022/03/10 10:28:31;;;;;;;15.95;8.50;;;13.40;99.60;;;;;;5009145;28;20102;-62
2022/03/10 10:31:03;;;;;;;13.55;8.43;;;13.40;99.20;;;;;;4999127;28;20038;-59
2022/03/10 10:33:31;;;;;;;19.98;7.97;;;13.40;99.30;;;;;;4998465;28;20066;-59
2022/03/10 10:36:17;;;;;;;12.43;7.00;;;13.50;99.50;;;;;;5015344;28;20266;-59
2022/03/10 10:38:46;;;;;;;15.52;7.95;;;13.40;98.60;;;;;;5015717;28;20030;-62
2022/03/10 10:41:26;;;;;;;14.98;8.18;;;13.40;99.30;;;;;;5015899;28;20170;-60
2022/03/10 10:44:00;;;;;;;13.15;7.40;;;13.40;98.80;;;;;;5015241;28;20054;-60
2022/03/10 10:46:31;;;;;;;15.45;6.70;;;13.30;99.20;;;;;;5015783;28;20031;-59
2022/03/10 10:49:05;;;;;;;13.55;6.68;;;13.40;99.20;;;;;;5011679;28;20135;-59
2022/03/10 10:51:41;;;;;;;14.88;7.40;;;13.40;99.10;;;;;;4993292;28;20037;-59
2022/03/10 10:54:09;;;;;;;15.57;7.55;;;13.50;99.00;;;;;;5015148;28;20080;-59
2022/03/10 10:56:45;;;;;;;15.23;6.60;;;13.60;99.10;;;;;;5015467;28;20040;-61
2022/03/10 10:59:25;;;;;;;13.90;6.43;;;13.70;98.70;;;;;;4998863;28;20053;-60
2022/03/10 11:02:04;;;;;;;11.07;7.10;;;13.80;98.70;;;;;;5015714;28;20272;-61
2022/03/10 11:04:31;;;;;;;9.20;5.68;;;13.80;98.80;;;;;;5007257;28;20034;-59
2022/03/10 11:06:58;;;;;;;10.88;6.28;;;13.80;98.80;;;;;;5009367;28;20049;-60
2022/03/10 11:09:25;;;;;;;11.80;6.35;;;13.90;98.80;;;;;;5014861;28;20037;-60
2022/03/10 11:11:53;;;;;;;13.20;5.78;;;13.80;98.90;;;;;;5014229;28;20061;-61
2022/03/10 11:14:20;;;;;;;10.77;4.93;;;13.80;98.70;;;;;;5015068;28;20050;-62
2022/03/10 11:16:46;;;;;;;9.65;4.32;;;13.80;98.60;;;;;;5018716;28;20034;-60
2022/03/10 11:19:13;;;;;;;14.90;5.85;;;13.80;98.70;;;;;;5017231;28;20031;-59
2022/03/10 11:22:31;;;;;;;11.02;4.70;;;13.70;98.60;;;;;;5009040;28;20038;-59
2022/03/10 11:25:19;;;;;;;8.25;4.68;;;13.70;98.20;;;;;;4976720;28;20030;-60
2022/03/10 11:27:50;;;;;;;11.07;4.43;;;13.80;98.60;;;;;;5019493;28;20057;-60
2022/03/10 11:30:18;;;;;;;9.60;4.13;;;13.80;98.80;;;;;;5018585;28;20062;-60
2022/03/10 11:32:59;;;;;;;8.35;4.30;;;13.80;98.80;;;;;;5019517;28;20066;-59
2022/03/10 11:35:30;;;;;;;6.68;4.18;;;13.80;98.30;;;;;;5017837;28;20061;-62
2022/03/10 11:37:57;;;;;;;8.25;3.95;;;13.90;98.70;;;;;;5018985;28;20069;-59
2022/03/10 11:41:00;;;;;;;7.80;3.75;;;14.00;98.70;;;;;;5018698;28;20034;-60
2022/03/10 11:43:34;;;;;;;13.73;4.55;;;14.00;98.10;;;;;;4951658;28;20031;-60
2022/03/10 11:46:21;;;;;;;11.80;3.53;;;14.00;98.60;;;;;;4991374;28;20034;-59
2022/03/10 11:49:15;;;;;;;6.03;3.30;;;14.10;98.20;;;;;;5016170;28;20038;-58
2022/03/10 11:51:59;;;;;;;11.65;4.75;;;14.10;98.40;;;;;;4999905;28;20029;-60
2022/03/10 11:54:30;;;;;;;9.40;4.35;;;14.10;98.30;;;;;;4999571;28;20027;-60
2022/03/10 11:57:11;;;;;;;9.13;3.80;;;14.20;98.60;;;;;;5016856;28;20042;-60
2022/03/10 11:59:38;;;;;;;8.93;4.43;;;14.10;98.60;;;;;;4984853;28;20034;-59
2022/03/10 12:02:07;;;;;;;8.02;4.80;;;14.10;98.60;;;;;;5016018;28;20027;-60
2022/03/10 12:04:36;;;;;;;7.22;4.00;;;14.10;98.60;;;;;;5001218;28;20050;-60
2022/03/10 12:07:04;;;;;;;9.77;3.85;;;14.20;98.60;;;;;;5018442;28;20030;-59
2022/03/10 12:09:33;;;;;;;9.82;3.35;;;14.30;98.40;;;;;;5003794;28;20038;-60
2022/03/10 12:12:25;;;;;;;11.18;4.40;;;14.30;98.50;;;;;;4998795;28;20038;-58
2022/03/10 12:15:29;;;;;;;15.35;3.72;;;14.30;98.00;;;;;;4999479;28;20098;-60
2022/03/10 12:17:57;;;;;;;6.95;3.45;;;14.50;98.40;;;;;;5017195;28;20097;-60
2022/03/10 12:20:37;;;;;;;6.22;3.08;;;14.60;98.40;;;;;;5018111;28;20054;-60
2022/03/10 12:23:09;;;;;;;12.30;4.10;;;14.70;98.40;;;;;;5017631;28;20049;-61
2022/03/10 12:25:43;;;;;;;5.60;3.25;;;14.80;98.20;;;;;;5016899;28;20097;-60
2022/03/10 12:28:11;;;;;;;9.07;4.40;;;14.90;97.70;;;;;;5000908;28;20030;-57
2022/03/10 12:30:42;;;;;;;13.77;5.35;;;14.90;98.10;;;;;;5001291;28;20065;-59
2022/03/10 12:33:08;;;;;;;8.52;4.15;;;14.90;97.70;;;;;;5018067;28;20049;-59
2022/03/10 12:35:36;;;;;;;12.63;3.92;;;15.10;98.30;;;;;;5017430;28;20038;-59
2022/03/10 12:38:03;;;;;;;9.98;4.15;;;15.00;98.00;;;;;;5000740;28;20061;-59
2022/03/10 12:40:32;;;;;;;10.13;4.68;;;15.10;97.70;;;;;;5017786;28;20295;-59
2022/03/10 12:43:04;;;;;;;15.60;4.18;;;15.10;97.80;;;;;;5017794;28;20031;-59
2022/03/10 12:45:31;;;;;;;8.45;4.20;;;15.10;97.50;;;;;;5021393;28;20034;-60
2022/03/10 12:48:04;;;;;;;5.03;3.28;;;15.10;97.40;;;;;;5016265;28;20046;-60
2022/03/10 12:50:32;;;;;;;10.20;4.32;;;15.10;96.90;;;;;;5000959;28;20034;-60
2022/03/10 12:53:08;;;;;;;11.75;3.90;;;15.10;97.20;;;;;;5017458;28;20038;-60